Time;durP1;ratioP1;P1;durP2;ratioP2;P2;SDS_P1;SDS_P2;PMS_P1;PMS_P2;Temp;Humidity;BMP_temperature;BMP_pressure;BME280_temperature;BME280_humidity;BME280_pressure;Samples;Min_cycle;Max_cycle;Signal;HPM_P1;HPM_P2
2022/02/22 00:00:19;;;;;;;13.53;3.87;;;5.10;99.90;;;;;;5019881;28;20556;-66
2022/02/22 00:03:10;;;;;;;28.53;4.40;;;5.10;99.90;;;;;;5021776;28;20518;-66
2022/02/22 00:05:40;;;;;;;18.27;3.97;;;5.20;99.90;;;;;;5032605;28;20659;-66
2022/02/22 00:08:08;;;;;;;17.53;3.77;;;5.20;99.90;;;;;;5026656;28;20352;-66
2022/02/22 00:10:37;;;;;;;23.80;3.73;;;5.20;99.90;;;;;;5025789;28;20225;-66
2022/02/22 00:13:06;;;;;;;19.07;3.30;;;5.20;99.90;;;;;;5029196;28;20263;-66
2022/02/22 00:15:34;;;;;;;19.87;3.87;;;5.20;99.90;;;;;;5025298;28;20198;-66
2022/02/22 00:18:03;;;;;;;19.10;3.50;;;5.30;99.90;;;;;;5027780;28;20198;-66
2022/02/22 00:20:31;;;;;;;25.27;3.90;;;5.30;99.90;;;;;;5017937;28;20188;-66
2022/02/22 00:23:05;;;;;;;28.17;4.30;;;5.30;99.90;;;;;;5018885;28;20201;-66
2022/02/22 00:25:34;;;;;;;26.50;4.07;;;5.30;99.90;;;;;;5026208;28;20197;-66
2022/02/22 00:28:02;;;;;;;24.83;4.27;;;5.40;99.90;;;;;;5020890;28;20189;-65
2022/02/22 00:30:31;;;;;;;22.40;4.40;;;5.30;99.90;;;;;;5027964;28;20229;-66
2022/02/22 00:33:01;;;;;;;24.53;4.17;;;5.20;99.90;;;;;;5023600;28;20285;-66
2022/02/22 00:35:29;;;;;;;32.60;4.10;;;5.20;99.90;;;;;;5026196;28;20562;-66
2022/02/22 00:37:57;;;;;;;13.67;3.60;;;5.20;99.90;;;;;;5031779;28;20778;-66
2022/02/22 00:40:27;;;;;;;25.60;4.30;;;5.10;99.90;;;;;;5029526;28;20225;-66
2022/02/22 00:42:55;;;;;;;26.40;3.60;;;5.10;99.90;;;;;;5021971;28;20284;-66
2022/02/22 00:45:24;;;;;;;23.67;4.37;;;5.10;99.90;;;;;;5021977;28;20228;-66
2022/02/22 00:47:52;;;;;;;28.40;4.27;;;4.90;99.90;;;;;;5028361;28;20282;-66
2022/02/22 00:50:21;;;;;;;21.07;4.27;;;4.90;99.90;;;;;;5022973;28;20218;-66
2022/02/22 00:52:49;;;;;;;24.60;3.83;;;4.80;99.90;;;;;;5024609;28;20201;-66
2022/02/22 00:55:18;;;;;;;17.67;3.40;;;4.80;99.90;;;;;;5024052;28;20202;-66
2022/02/22 00:57:47;;;;;;;20.27;3.50;;;4.70;99.90;;;;;;5024936;28;20257;-66
2022/02/22 01:00:16;;;;;;;30.67;4.37;;;4.70;99.90;;;;;;5024053;28;20193;-66
2022/02/22 01:02:45;;;;;;;26.93;3.73;;;4.60;99.90;;;;;;5023555;28;20198;-66
2022/02/22 01:05:13;;;;;;;26.67;3.23;;;4.50;99.90;;;;;;5008866;28;21046;-66
2022/02/22 01:07:41;;;;;;;21.63;3.40;;;4.50;99.90;;;;;;5025686;28;20247;-66
2022/02/22 01:10:11;;;;;;;21.03;3.63;;;4.40;99.90;;;;;;5026976;28;20340;-66
2022/02/22 01:12:39;;;;;;;21.07;3.47;;;4.30;99.90;;;;;;5009130;28;20264;-66
2022/02/22 01:15:10;;;;;;;18.63;3.43;;;4.20;99.90;;;;;;5023433;28;20651;-66
2022/02/22 01:17:38;;;;;;;29.47;4.43;;;4.20;99.90;;;;;;5023167;28;20198;-66
2022/02/22 01:20:09;;;;;;;25.37;3.83;;;4.20;99.90;;;;;;5022674;28;20792;-66
2022/02/22 01:22:38;;;;;;;25.00;3.30;;;4.10;99.90;;;;;;5020972;28;20276;-66
2022/02/22 01:25:07;;;;;;;23.40;3.60;;;4.10;99.90;;;;;;5028165;28;20197;-66
2022/02/22 01:27:36;;;;;;;22.73;3.67;;;4.00;99.90;;;;;;5026643;28;20197;-66
2022/02/22 01:30:05;;;;;;;18.47;3.70;;;4.00;99.90;;;;;;5022545;28;20292;-66
2022/02/22 01:32:35;;;;;;;21.10;3.77;;;4.00;99.90;;;;;;5024003;28;20271;-66
2022/02/22 01:35:05;;;;;;;15.97;3.10;;;4.00;99.90;;;;;;5025677;28;20571;-66
2022/02/22 01:37:33;;;;;;;21.57;3.83;;;4.00;99.90;;;;;;5032976;28;20212;-66
2022/02/22 01:40:02;;;;;;;33.27;5.27;;;3.90;99.90;;;;;;5022228;28;20214;-66
2022/02/22 01:42:30;;;;;;;22.10;3.70;;;3.90;99.90;;;;;;5024839;28;20221;-66
2022/02/22 01:44:59;;;;;;;19.20;3.40;;;3.80;99.90;;;;;;5018086;28;20212;-66
2022/02/22 01:47:28;;;;;;;21.93;3.87;;;3.80;99.90;;;;;;5024746;28;20201;-66
2022/02/22 01:49:58;;;;;;;26.37;3.80;;;3.80;99.90;;;;;;5024344;28;20263;-66
2022/02/22 01:52:26;;;;;;;25.43;3.80;;;3.80;99.90;;;;;;5018461;28;20198;-66
2022/02/22 01:54:55;;;;;;;20.60;3.97;;;3.70;99.90;;;;;;5029041;28;20208;-66
2022/02/22 01:57:24;;;;;;;28.43;3.40;;;3.80;99.90;;;;;;5019852;28;20594;-66
2022/02/22 01:59:54;;;;;;;29.13;4.30;;;3.80;99.90;;;;;;5025857;28;20224;-66
2022/02/22 02:02:23;;;;;;;17.27;3.27;;;3.90;99.90;;;;;;5022653;28;20194;-66
2022/02/22 02:04:51;;;;;;;15.73;3.07;;;4.00;99.90;;;;;;5022023;28;20239;-66
2022/02/22 02:07:21;;;;;;;19.23;4.07;;;4.00;99.90;;;;;;5020935;28;20658;-66
2022/02/22 02:09:50;;;;;;;15.83;3.47;;;3.90;99.90;;;;;;5012427;28;20293;-66
2022/02/22 02:12:18;;;;;;;18.97;3.80;;;3.80;99.90;;;;;;5026138;28;20324;-66
2022/02/22 02:14:46;;;;;;;24.10;3.83;;;3.70;99.90;;;;;;5022627;28;20205;-66
2022/02/22 02:17:16;;;;;;;16.70;3.70;;;3.80;99.90;;;;;;5023223;28;20197;-66
2022/02/22 02:19:44;;;;;;;13.37;3.93;;;3.80;99.90;;;;;;5021114;28;20229;-66
2022/02/22 02:22:14;;;;;;;12.77;3.47;;;3.70;99.90;;;;;;5017555;28;20190;-66
2022/02/22 02:24:43;;;;;;;17.57;4.20;;;3.70;99.90;;;;;;5022366;28;20214;-66
2022/02/22 02:27:11;;;;;;;22.80;4.00;;;3.70;99.90;;;;;;5028901;28;20648;-66
2022/02/22 02:29:43;;;;;;;19.97;4.13;;;3.70;99.90;;;;;;5036661;28;20285;-66
2022/02/22 02:32:11;;;;;;;19.70;4.43;;;3.80;99.90;;;;;;5020499;28;20189;-66
2022/02/22 02:34:39;;;;;;;20.43;4.13;;;3.70;99.90;;;;;;5028697;28;20644;-66
2022/02/22 02:37:08;;;;;;;18.77;4.17;;;3.80;99.90;;;;;;5024076;28;20425;-66
2022/02/22 02:39:38;;;;;;;14.63;4.27;;;3.80;99.90;;;;;;5031610;28;20205;-66
2022/02/22 02:42:07;;;;;;;20.77;4.10;;;3.80;99.90;;;;;;5025135;28;20205;-66
2022/02/22 02:44:35;;;;;;;16.50;3.70;;;3.80;99.90;;;;;;5016559;28;20295;-66
2022/02/22 02:47:05;;;;;;;11.23;3.70;;;3.80;99.90;;;;;;5024409;28;20201;-66
2022/02/22 02:49:34;;;;;;;19.07;3.70;;;3.80;99.90;;;;;;5027427;28;20198;-66
2022/02/22 02:52:02;;;;;;;21.33;5.20;;;3.80;99.90;;;;;;5017852;28;20264;-65
2022/02/22 02:54:31;;;;;;;20.80;4.30;;;3.70;99.90;;;;;;5017553;28;20277;-66
2022/02/22 02:57:01;;;;;;;17.77;4.13;;;3.70;99.90;;;;;;5024852;28;20365;-66
2022/02/22 02:59:30;;;;;;;19.93;3.50;;;3.70;99.90;;;;;;5024896;28;20201;-66
2022/02/22 03:01:58;;;;;;;26.00;4.00;;;3.80;99.90;;;;;;5021580;28;20211;-66
2022/02/22 03:04:29;;;;;;;22.93;4.53;;;3.80;99.90;;;;;;5022697;28;20206;-66
2022/02/22 03:06:57;;;;;;;17.20;3.97;;;3.80;99.90;;;;;;5017413;28;20300;-66
2022/02/22 03:09:25;;;;;;;13.97;3.87;;;3.90;99.90;;;;;;5025217;28;20197;-66
2022/02/22 03:11:54;;;;;;;24.67;3.90;;;4.00;99.90;;;;;;5020162;28;20213;-66
2022/02/22 03:14:23;;;;;;;15.97;4.10;;;4.00;99.90;;;;;;5021060;28;20746;-66
2022/02/22 03:16:52;;;;;;;12.30;3.50;;;3.90;99.90;;;;;;5018430;28;20201;-66
2022/02/22 03:19:20;;;;;;;20.43;3.73;;;3.90;99.90;;;;;;5022993;28;20197;-66
2022/02/22 03:21:48;;;;;;;17.67;4.40;;;3.90;99.90;;;;;;5022022;28;20236;-66
2022/02/22 03:24:18;;;;;;;19.07;3.73;;;3.80;99.90;;;;;;5019149;28;20220;-66
2022/02/22 03:26:47;;;;;;;13.87;3.50;;;3.80;99.90;;;;;;5018981;28;20223;-66
2022/02/22 03:29:15;;;;;;;15.77;3.67;;;3.70;99.90;;;;;;5019380;28;20227;-66
2022/02/22 03:31:45;;;;;;;20.33;3.57;;;3.70;99.90;;;;;;5021563;28;20296;-65
2022/02/22 03:34:13;;;;;;;14.73;3.20;;;3.70;99.90;;;;;;5013164;28;20236;-66
2022/02/22 03:36:43;;;;;;;14.03;4.53;;;3.70;99.90;;;;;;5027335;28;20235;-66
2022/02/22 03:39:12;;;;;;;22.13;4.47;;;3.60;99.90;;;;;;5023103;28;20255;-66
2022/02/22 03:41:40;;;;;;;12.20;3.37;;;3.70;99.90;;;;;;5018347;28;20222;-66
2022/02/22 03:44:08;;;;;;;14.47;3.67;;;3.70;99.90;;;;;;5019936;28;20210;-66
2022/02/22 03:46:40;;;;;;;22.33;4.30;;;3.60;99.90;;;;;;5034063;28;20182;-66
2022/02/22 03:49:10;;;;;;;10.70;3.33;;;3.50;99.90;;;;;;5028517;28;20228;-66
2022/02/22 03:51:41;;;;;;;18.73;3.63;;;3.50;99.90;;;;;;5018041;28;20205;-66
2022/02/22 03:54:09;;;;;;;15.30;4.40;;;3.50;99.90;;;;;;5016136;28;20204;-66
2022/02/22 03:56:38;;;;;;;12.50;3.40;;;3.50;99.90;;;;;;5021829;28;20225;-66
2022/02/22 03:59:06;;;;;;;23.63;4.23;;;3.50;99.90;;;;;;5021428;28;20259;-65
2022/02/22 04:01:34;;;;;;;21.30;3.83;;;3.50;99.90;;;;;;5023250;28;20202;-66
2022/02/22 04:04:03;;;;;;;14.57;4.50;;;3.40;99.90;;;;;;5020044;28;20223;-66
2022/02/22 04:06:33;;;;;;;27.13;5.53;;;3.50;99.90;;;;;;5027925;28;20245;-66
2022/02/22 04:09:01;;;;;;;22.23;4.83;;;3.50;99.90;;;;;;5021662;28;20259;-65
2022/02/22 04:11:30;;;;;;;22.10;4.53;;;3.60;99.90;;;;;;5018847;28;20593;-65
2022/02/22 04:13:58;;;;;;;21.30;4.50;;;3.60;99.90;;;;;;5020731;28;20193;-66
2022/02/22 04:16:27;;;;;;;21.60;5.50;;;3.60;99.90;;;;;;5025511;28;20231;-66
2022/02/22 04:18:56;;;;;;;18.30;5.07;;;3.60;99.90;;;;;;5011804;28;20190;-66
2022/02/22 04:21:24;;;;;;;24.40;5.53;;;3.60;99.90;;;;;;5017942;28;20210;-66
2022/02/22 04:23:54;;;;;;;17.70;4.90;;;3.70;99.90;;;;;;5019956;28;20280;-66
2022/02/22 04:26:22;;;;;;;32.70;5.53;;;3.70;99.90;;;;;;5021113;28;20289;-66
2022/02/22 04:28:52;;;;;;;24.97;4.93;;;3.60;99.90;;;;;;5013798;28;20213;-66
2022/02/22 04:31:21;;;;;;;28.40;5.43;;;3.60;99.90;;;;;;5023944;28;20244;-66
2022/02/22 04:33:52;;;;;;;20.10;5.27;;;3.60;99.90;;;;;;5019273;28;20249;-66
2022/02/22 04:36:20;;;;;;;25.00;5.47;;;3.70;99.90;;;;;;5019122;28;20272;-66
2022/02/22 04:38:48;;;;;;;33.80;6.13;;;3.70;99.90;;;;;;5020882;28;20387;-66
2022/02/22 04:41:18;;;;;;;24.67;5.50;;;3.70;99.90;;;;;;5030131;28;20221;-66
2022/02/22 04:43:47;;;;;;;38.17;6.37;;;3.70;99.90;;;;;;5020966;28;20205;-66
2022/02/22 04:46:15;;;;;;;31.33;5.70;;;3.70;99.90;;;;;;5017556;28;20280;-66
2022/02/22 04:48:44;;;;;;;39.77;7.10;;;3.80;99.90;;;;;;5020380;28;20228;-66
2022/02/22 04:51:12;;;;;;;33.50;6.33;;;3.80;99.90;;;;;;5020658;28;20237;-65
2022/02/22 04:53:41;;;;;;;32.80;6.77;;;3.80;99.90;;;;;;5029384;28;20230;-66
2022/02/22 04:56:09;;;;;;;32.73;6.30;;;3.90;99.90;;;;;;5024421;28;20224;-66
2022/02/22 04:58:39;;;;;;;36.07;7.33;;;3.80;99.90;;;;;;5028286;28;20189;-66
2022/02/22 05:01:08;;;;;;;33.70;6.30;;;3.80;99.90;;;;;;5020383;28;21066;-66
2022/02/22 05:04:14;;;;;;;41.80;6.87;;;3.80;99.90;;;;;;5023211;28;20200;-66
2022/02/22 05:07:20;;;;;;;38.90;6.30;;;3.80;99.90;;;;;;5026908;28;20780;-66
2022/02/22 05:09:49;;;;;;;42.03;6.50;;;3.80;99.90;;;;;;5023765;28;20218;-66
2022/02/22 05:12:17;;;;;;;28.83;5.90;;;3.90;99.90;;;;;;5034580;28;20267;-66
2022/02/22 05:14:47;;;;;;;24.97;6.57;;;3.90;99.90;;;;;;5023317;28;20610;-66
2022/02/22 05:17:15;;;;;;;31.67;5.80;;;3.90;99.90;;;;;;5029714;28;20282;-66
2022/02/22 05:19:44;;;;;;;37.37;6.73;;;3.80;99.90;;;;;;5035516;28;20205;-66
2022/02/22 05:22:12;;;;;;;28.77;6.63;;;3.80;99.90;;;;;;5037884;28;20296;-66
2022/02/22 05:24:40;;;;;;;49.03;7.33;;;3.70;99.90;;;;;;5025507;28;20664;-66
2022/02/22 05:27:09;;;;;;;38.53;6.70;;;3.70;99.90;;;;;;5026965;28;20236;-66
2022/02/22 05:29:37;;;;;;;35.63;6.50;;;3.70;99.90;;;;;;5025306;28;20288;-66
2022/02/22 05:32:10;;;;;;;40.37;7.73;;;3.70;99.90;;;;;;5025550;28;20657;-66
2022/02/22 05:34:38;;;;;;;42.70;7.30;;;3.60;99.90;;;;;;5019284;28;20194;-66
2022/02/22 05:37:09;;;;;;;49.67;7.33;;;3.60;99.90;;;;;;5020412;28;20213;-66
2022/02/22 05:39:37;;;;;;;40.43;6.67;;;3.60;99.90;;;;;;5033445;28;20621;-66
2022/02/22 05:42:07;;;;;;;34.93;6.83;;;3.70;99.90;;;;;;5025331;28;20561;-65
2022/02/22 05:44:35;;;;;;;41.00;7.50;;;3.70;99.90;;;;;;5021982;28;20225;-66
2022/02/22 05:47:04;;;;;;;36.63;6.17;;;3.80;99.90;;;;;;5023953;28;20201;-65
2022/02/22 05:49:34;;;;;;;39.87;6.80;;;3.80;99.90;;;;;;5013647;28;20194;-66
2022/02/22 05:52:03;;;;;;;30.67;6.00;;;3.80;99.90;;;;;;5019831;28;20209;-65
2022/02/22 05:54:31;;;;;;;42.30;7.70;;;3.80;99.90;;;;;;5026634;28;20296;-66
2022/02/22 05:56:59;;;;;;;40.17;6.17;;;3.80;99.90;;;;;;5030052;28;20686;-66
2022/02/22 05:59:28;;;;;;;42.83;6.23;;;3.80;99.90;;;;;;5017843;28;20243;-66
2022/02/22 06:01:56;;;;;;;32.93;5.87;;;3.80;99.90;;;;;;5022668;28;20235;-66
2022/02/22 06:04:26;;;;;;;42.43;6.70;;;3.80;99.90;;;;;;5028384;28;20289;-66
2022/02/22 06:06:56;;;;;;;30.10;5.70;;;3.90;99.90;;;;;;5020359;28;20320;-66
2022/02/22 06:09:24;;;;;;;32.80;6.13;;;4.00;99.90;;;;;;5029694;28;20225;-66
2022/02/22 06:11:53;;;;;;;30.07;5.73;;;4.10;99.90;;;;;;5019503;28;20284;-66
2022/02/22 06:14:21;;;;;;;52.57;5.77;;;4.10;99.90;;;;;;5030000;28;20231;-66
2022/02/22 06:16:53;;;;;;;32.33;5.90;;;4.20;99.90;;;;;;5030345;28;20248;-66
2022/02/22 06:19:26;;;;;;;41.67;7.10;;;4.20;99.90;;;;;;5032953;28;20746;-66
2022/02/22 06:21:56;;;;;;;38.73;6.57;;;4.20;99.90;;;;;;5018464;28;20284;-66
2022/02/22 06:24:25;;;;;;;33.83;6.03;;;4.30;99.90;;;;;;5024642;28;20272;-66
2022/02/22 06:26:53;;;;;;;39.60;6.73;;;4.30;99.90;;;;;;5026075;28;20198;-66
2022/02/22 06:29:23;;;;;;;35.20;5.93;;;4.30;99.90;;;;;;5020499;28;20194;-66
2022/02/22 06:31:52;;;;;;;33.93;5.93;;;4.30;99.90;;;;;;5018047;28;20208;-66
2022/02/22 06:34:20;;;;;;;28.90;5.87;;;4.30;99.90;;;;;;5043471;28;20280;-66
2022/02/22 06:36:48;;;;;;;35.27;5.57;;;4.40;99.90;;;;;;5022342;28;20805;-66
2022/02/22 06:39:18;;;;;;;32.53;5.60;;;4.40;99.90;;;;;;5020129;28;20310;-66
2022/02/22 06:41:47;;;;;;;34.23;6.50;;;4.40;99.90;;;;;;5020955;28;20206;-66
2022/02/22 06:44:16;;;;;;;35.37;6.57;;;4.50;99.90;;;;;;5027365;28;20239;-66
2022/02/22 06:46:46;;;;;;;37.53;7.43;;;4.50;99.90;;;;;;5020799;28;20205;-66
2022/02/22 06:49:15;;;;;;;34.63;8.57;;;4.50;99.90;;;;;;5019888;28;20193;-66
2022/02/22 06:51:43;;;;;;;31.53;7.53;;;4.60;99.90;;;;;;5031872;28;20206;-65
2022/02/22 06:54:11;;;;;;;40.23;7.20;;;4.60;99.90;;;;;;5033983;28;20742;-66
2022/02/22 06:56:41;;;;;;;30.77;6.67;;;4.60;99.90;;;;;;5021663;28;20401;-65
2022/02/22 06:59:11;;;;;;;31.93;5.73;;;4.60;99.90;;;;;;5021561;28;20280;-66
2022/02/22 07:01:39;;;;;;;30.40;5.50;;;4.60;99.90;;;;;;5014966;28;20240;-66
2022/02/22 07:04:07;;;;;;;35.83;5.70;;;4.60;99.90;;;;;;5024793;28;20193;-66
2022/02/22 07:06:35;;;;;;;27.00;6.47;;;4.70;99.90;;;;;;5025134;28;20284;-66
2022/02/22 07:09:04;;;;;;;24.43;5.53;;;4.70;99.90;;;;;;5025705;28;20193;-66
2022/02/22 07:11:34;;;;;;;33.77;6.03;;;4.70;99.90;;;;;;5009655;28;20227;-66
2022/02/22 07:14:03;;;;;;;36.67;6.50;;;4.80;99.90;;;;;;5024498;28;20225;-65
2022/02/22 07:16:32;;;;;;;23.60;5.07;;;4.80;99.90;;;;;;5019851;28;20660;-66
2022/02/22 07:19:01;;;;;;;29.87;5.53;;;4.80;99.90;;;;;;5025501;28;20276;-66
2022/02/22 07:21:29;;;;;;;34.47;5.63;;;4.90;99.90;;;;;;5017640;28;20190;-66
2022/02/22 07:23:57;;;;;;;38.73;6.40;;;4.90;99.90;;;;;;5031926;28;20847;-66
2022/02/22 07:26:26;;;;;;;26.63;5.00;;;5.00;99.90;;;;;;5024203;28;20540;-66
2022/02/22 07:28:54;;;;;;;27.67;4.77;;;5.10;99.90;;;;;;5021082;28;20729;-66
2022/02/22 07:31:22;;;;;;;32.70;6.00;;;5.10;99.90;;;;;;5020520;28;20208;-66
2022/02/22 07:33:52;;;;;;;25.43;5.07;;;5.10;99.90;;;;;;5012460;28;20286;-66
2022/02/22 07:36:21;;;;;;;28.80;5.37;;;5.10;99.90;;;;;;5019414;28;20197;-66
2022/02/22 07:38:49;;;;;;;35.33;5.77;;;5.10;99.90;;;;;;5021397;28;20276;-65
2022/02/22 07:41:22;;;;;;;43.47;6.60;;;5.20;99.90;;;;;;5024833;28;20202;-66
2022/02/22 07:43:51;;;;;;;22.83;4.83;;;5.30;99.90;;;;;;5031697;28;20303;-66
2022/02/22 07:46:20;;;;;;;23.97;5.70;;;5.30;99.90;;;;;;5020301;28;20190;-66
2022/02/22 07:48:49;;;;;;;36.77;6.03;;;5.40;99.90;;;;;;5022195;28;20197;-66
2022/02/22 07:51:19;;;;;;;34.37;6.13;;;5.40;99.90;;;;;;5019217;28;20255;-66
2022/02/22 07:53:48;;;;;;;32.70;5.83;;;5.50;99.90;;;;;;5021954;28;20236;-65
2022/02/22 07:56:17;;;;;;;23.30;6.90;;;5.50;99.90;;;;;;5015005;28;20221;-66
2022/02/22 07:58:47;;;;;;;34.90;6.07;;;5.60;99.90;;;;;;5016098;28;20183;-66
2022/02/22 08:01:15;;;;;;;33.53;6.70;;;5.60;99.90;;;;;;5021161;28;20259;-66
2022/02/22 08:03:44;;;;;;;30.53;6.10;;;5.70;99.90;;;;;;5025128;28;20184;-66
2022/02/22 08:06:13;;;;;;;33.50;7.93;;;5.70;99.90;;;;;;5034727;28;20211;-66
2022/02/22 08:08:43;;;;;;;38.40;7.17;;;5.80;99.90;;;;;;5025488;28;20281;-66
2022/02/22 08:11:11;;;;;;;34.80;6.83;;;5.80;99.90;;;;;;5026054;28;20205;-66
2022/02/22 08:13:40;;;;;;;32.57;7.53;;;5.80;99.90;;;;;;5022876;28;20593;-66
2022/02/22 08:16:08;;;;;;;33.97;6.90;;;5.90;99.90;;;;;;5020041;28;20209;-66
2022/02/22 08:18:37;;;;;;;33.77;6.27;;;6.00;99.90;;;;;;5027016;28;20277;-66
2022/02/22 08:21:06;;;;;;;38.50;8.50;;;6.10;99.90;;;;;;5021857;28;20220;-66
2022/02/22 08:23:37;;;;;;;34.30;6.83;;;6.10;99.90;;;;;;5023735;28;20586;-66
2022/02/22 08:26:07;;;;;;;42.40;8.07;;;6.20;99.90;;;;;;5027060;28;20276;-66
2022/02/22 08:28:36;;;;;;;32.50;6.63;;;6.30;99.90;;;;;;5020800;28;20216;-66
2022/02/22 08:31:04;;;;;;;44.17;7.93;;;6.40;99.90;;;;;;5024144;28;20200;-66
2022/02/22 08:33:32;;;;;;;42.83;7.23;;;6.50;99.90;;;;;;5026554;28;20256;-66
2022/02/22 08:36:01;;;;;;;44.47;7.20;;;6.60;99.90;;;;;;5026040;28;20272;-66
2022/02/22 08:38:30;;;;;;;39.57;7.40;;;6.70;99.90;;;;;;5025183;28;20284;-66
2022/02/22 08:41:04;;;;;;;41.77;7.93;;;6.80;99.90;;;;;;5021650;28;20201;-66
2022/02/22 08:43:35;;;;;;;35.27;7.60;;;7.00;99.90;;;;;;5023983;28;20201;-66
2022/02/22 08:46:03;;;;;;;43.97;8.37;;;7.50;99.90;;;;;;5027841;28;20747;-66
2022/02/22 08:48:32;;;;;;;43.53;8.13;;;8.00;99.90;;;;;;5024076;28;20193;-66
2022/02/22 08:51:00;;;;;;;47.20;8.53;;;8.40;99.90;;;;;;5026788;28;20264;-65
2022/02/22 08:53:29;;;;;;;38.57;8.10;;;8.40;99.90;;;;;;5022280;28;20301;-66
2022/02/22 08:55:59;;;;;;;44.10;8.23;;;8.40;99.90;;;;;;5023720;28;20205;-66
2022/02/22 08:58:30;;;;;;;41.67;7.77;;;8.50;99.90;;;;;;5027624;28;20212;-66
2022/02/22 09:01:00;;;;;;;42.30;8.07;;;8.70;99.90;;;;;;5025544;28;20858;-66
2022/02/22 09:03:29;;;;;;;48.77;9.23;;;8.90;99.90;;;;;;5043319;28;20224;-66
2022/02/22 09:05:59;;;;;;;43.73;8.60;;;8.90;99.90;;;;;;5027629;28;20288;-66
2022/02/22 09:08:28;;;;;;;48.17;9.03;;;8.70;99.90;;;;;;5018829;28;21806;-66
2022/02/22 09:10:56;;;;;;;45.03;8.70;;;8.60;99.90;;;;;;5021799;28;20209;-66
2022/02/22 09:13:31;;;;;;;64.63;10.40;;;8.50;99.90;;;;;;5028330;28;20604;-66
2022/02/22 09:16:01;;;;;;;79.87;12.17;;;8.50;99.90;;;;;;5029599;28;20240;-66
2022/02/22 09:18:29;;;;;;;54.17;9.77;;;8.40;99.90;;;;;;5025208;28;20251;-66
2022/02/22 09:20:58;;;;;;;44.33;9.50;;;8.30;99.90;;;;;;5026160;28;20197;-66
2022/02/22 09:23:27;;;;;;;44.47;7.97;;;8.40;99.90;;;;;;5022484;28;20241;-66
2022/02/22 09:25:56;;;;;;;53.37;8.77;;;8.30;99.90;;;;;;5033303;28;20272;-66
2022/02/22 09:28:25;;;;;;;51.67;8.63;;;8.40;99.90;;;;;;5017973;28;20664;-66
2022/02/22 09:30:53;;;;;;;48.63;8.77;;;8.50;99.90;;;;;;5022407;28;20206;-66
2022/02/22 09:33:23;;;;;;;51.13;8.73;;;8.50;99.90;;;;;;5044979;28;20213;-66
2022/02/22 09:35:55;;;;;;;45.97;8.23;;;8.50;99.90;;;;;;5026179;28;20304;-66
2022/02/22 09:38:23;;;;;;;51.77;8.53;;;8.50;99.90;;;;;;5019142;28;20220;-66
2022/02/22 09:40:51;;;;;;;51.60;7.60;;;8.40;99.90;;;;;;5023464;28;20298;-66
2022/02/22 09:43:20;;;;;;;47.77;8.20;;;8.40;99.90;;;;;;5018275;28;20691;-66
2022/02/22 09:45:50;;;;;;;55.93;8.10;;;8.50;99.90;;;;;;5020126;28;20201;-66
2022/02/22 09:48:19;;;;;;;49.73;8.40;;;8.40;99.90;;;;;;5022393;28;20206;-66
2022/02/22 09:50:49;;;;;;;45.73;7.33;;;8.40;99.90;;;;;;5025841;28;20225;-67
2022/02/22 09:53:18;;;;;;;42.13;8.07;;;8.40;99.90;;;;;;5024570;28;20286;-66
2022/02/22 09:55:46;;;;;;;49.80;8.67;;;8.50;99.90;;;;;;5027292;28;20774;-67
2022/02/22 09:58:17;;;;;;;46.03;8.60;;;8.60;99.90;;;;;;5020590;28;20194;-66
2022/02/22 10:00:45;;;;;;;47.23;8.23;;;8.60;99.90;;;;;;5031705;28;20202;-66
2022/02/22 10:03:18;;;;;;;57.00;8.33;;;8.60;99.90;;;;;;5020917;28;20792;-67
2022/02/22 10:05:56;;;;;;;45.10;7.83;;;8.60;99.90;;;;;;5023502;28;20386;-66
2022/02/22 10:08:26;;;;;;;48.20;8.27;;;8.50;99.90;;;;;;5020558;28;20271;-67
2022/02/22 10:11:04;;;;;;;38.23;9.03;;;8.50;99.90;;;;;;5019606;28;20190;-67
2022/02/22 10:13:33;;;;;;;45.10;8.37;;;8.50;99.90;;;;;;5026951;28;20197;-67
2022/02/22 10:16:08;;;;;;;41.10;8.40;;;8.50;99.90;;;;;;5019199;28;20688;-66
2022/02/22 10:18:46;;;;;;;48.73;8.30;;;8.50;99.90;;;;;;5017886;28;20570;-67
2022/02/22 10:21:16;;;;;;;45.13;7.93;;;8.50;99.90;;;;;;5015225;28;20675;-66
2022/02/22 10:23:45;;;;;;;49.20;8.40;;;8.60;99.90;;;;;;5023451;28;20296;-66
2022/02/22 10:26:21;;;;;;;42.53;7.90;;;8.60;99.90;;;;;;5023554;28;20240;-66
2022/02/22 10:28:53;;;;;;;49.20;8.23;;;8.50;99.90;;;;;;5022906;28;20204;-66
2022/02/22 10:31:30;;;;;;;53.87;9.37;;;8.50;99.90;;;;;;5026190;28;20792;-67
2022/02/22 10:33:59;;;;;;;44.33;8.63;;;8.50;99.90;;;;;;5021754;28;20204;-66
2022/02/22 10:36:41;;;;;;;38.23;7.10;;;8.60;99.90;;;;;;5019636;28;20194;-67
2022/02/22 10:39:12;;;;;;;33.07;7.60;;;8.60;99.90;;;;;;5032958;28;20686;-67
2022/02/22 10:41:42;;;;;;;28.40;7.20;;;8.60;99.90;;;;;;5027468;28;20204;-67
2022/02/22 10:44:13;;;;;;;39.77;7.30;;;8.60;99.90;;;;;;5024595;28;20224;-67
2022/02/22 10:46:45;;;;;;;47.37;8.80;;;8.70;99.90;;;;;;5023619;28;20212;-67
2022/02/22 10:49:16;;;;;;;48.50;7.53;;;8.80;99.90;;;;;;5020855;28;20202;-66
2022/02/22 10:51:49;;;;;;;42.50;8.23;;;8.90;99.90;;;;;;5007951;28;20213;-66
2022/02/22 10:54:21;;;;;;;30.57;7.40;;;8.90;99.90;;;;;;5020255;28;20197;-67
2022/02/22 10:56:50;;;;;;;39.80;8.10;;;8.90;99.90;;;;;;5024331;28;20232;-66
2022/02/22 10:59:20;;;;;;;33.87;7.83;;;8.90;99.90;;;;;;5013915;28;20352;-67
2022/02/22 11:01:51;;;;;;;39.70;7.90;;;9.00;99.90;;;;;;5021287;28;20201;-67
2022/02/22 11:04:27;;;;;;;37.63;7.97;;;9.10;99.90;;;;;;5020928;28;20194;-66
2022/02/22 11:06:57;;;;;;;38.10;7.70;;;9.10;99.90;;;;;;5020401;28;20233;-67
2022/02/22 11:09:27;;;;;;;30.13;7.23;;;9.10;99.90;;;;;;5014156;28;20201;-67
2022/02/22 11:12:01;;;;;;;36.07;7.77;;;9.20;99.90;;;;;;5022713;28;20209;-66
2022/02/22 11:14:31;;;;;;;36.63;8.63;;;9.30;99.90;;;;;;5023430;28;20603;-66
2022/02/22 11:17:14;;;;;;;30.03;7.77;;;9.30;99.90;;;;;;5019189;28;20675;-67
2022/02/22 11:19:45;;;;;;;31.20;7.57;;;9.30;99.90;;;;;;5019862;28;20193;-66
2022/02/22 11:22:17;;;;;;;30.53;8.13;;;9.20;99.90;;;;;;5020469;28;20649;-67
2022/02/22 11:24:47;;;;;;;26.40;7.60;;;9.20;99.90;;;;;;5015582;28;20197;-67
2022/02/22 11:27:28;;;;;;;29.20;7.23;;;9.10;99.90;;;;;;5020417;28;20201;-67
2022/02/22 11:29:59;;;;;;;27.20;7.43;;;9.10;99.90;;;;;;5024353;28;20266;-67
2022/02/22 11:32:57;;;;;;;22.10;7.37;;;9.20;99.90;;;;;;5034803;28;20217;-67
2022/02/22 11:35:28;;;;;;;29.97;7.30;;;9.20;99.90;;;;;;5016929;28;20210;-67
2022/02/22 11:38:10;;;;;;;29.23;7.93;;;9.20;99.90;;;;;;5018777;28;20372;-67
2022/02/22 11:40:40;;;;;;;34.87;8.03;;;9.20;99.90;;;;;;5017321;28;20197;-67
2022/02/22 11:43:13;;;;;;;27.40;7.77;;;9.20;99.90;;;;;;5027381;28;20217;-67
2022/02/22 11:45:43;;;;;;;31.80;7.77;;;9.30;99.90;;;;;;5023544;28;20197;-67
2022/02/22 11:48:20;;;;;;;27.30;7.90;;;9.40;99.90;;;;;;5016619;28;20323;-67
2022/02/22 11:50:51;;;;;;;24.83;7.70;;;9.50;99.90;;;;;;5019830;28;20220;-67
2022/02/22 11:53:25;;;;;;;24.77;7.00;;;9.60;99.90;;;;;;5016733;28;20201;-67
2022/02/22 11:55:56;;;;;;;27.70;8.20;;;9.70;99.90;;;;;;5014696;28;20314;-67
2022/02/22 11:58:26;;;;;;;25.77;8.30;;;9.70;99.90;;;;;;5015247;28;20199;-67
2022/02/22 12:00:56;;;;;;;26.80;7.80;;;9.70;99.90;;;;;;5018691;28;20217;-67
2022/02/22 12:03:25;;;;;;;26.80;7.90;;;9.70;99.90;;;;;;5025072;28;20205;-67
2022/02/22 12:05:57;;;;;;;26.10;7.43;;;9.70;99.90;;;;;;5018306;28;20251;-67
2022/02/22 12:08:29;;;;;;;20.13;7.17;;;9.80;99.90;;;;;;5029027;28;20312;-67
2022/02/22 12:10:59;;;;;;;27.87;8.07;;;9.80;99.90;;;;;;5020821;28;20197;-67
2022/02/22 12:13:39;;;;;;;18.33;6.90;;;9.90;99.90;;;;;;5029761;28;20202;-67
2022/02/22 12:16:13;;;;;;;23.03;7.20;;;10.00;99.90;;;;;;5020081;28;20213;-66
2022/02/22 12:18:44;;;;;;;15.23;6.70;;;10.00;99.90;;;;;;5008168;28;20201;-67
2022/02/22 12:21:13;;;;;;;26.80;7.80;;;10.20;99.90;;;;;;5030693;28;20197;-67
2022/02/22 12:23:43;;;;;;;15.80;6.53;;;10.30;99.90;;;;;;5019719;28;20217;-67
2022/02/22 12:26:13;;;;;;;19.30;6.93;;;10.40;99.90;;;;;;5028879;28;20182;-67
2022/02/22 12:28:46;;;;;;;21.50;6.97;;;10.60;99.90;;;;;;5017112;28;20202;-67
2022/02/22 12:31:25;;;;;;;24.73;7.47;;;10.60;99.90;;;;;;5022202;28;20208;-67
2022/02/22 12:33:59;;;;;;;23.07;7.03;;;10.60;99.90;;;;;;5026590;28;20263;-67
2022/02/22 12:36:28;;;;;;;16.00;6.13;;;10.60;99.90;;;;;;5021359;28;20628;-67
2022/02/22 12:38:59;;;;;;;22.37;7.70;;;10.70;99.90;;;;;;5017918;28;20657;-67
2022/02/22 12:41:33;;;;;;;19.03;6.63;;;10.70;99.90;;;;;;5021406;28;20276;-67
2022/02/22 12:44:02;;;;;;;20.80;6.97;;;10.70;99.90;;;;;;5025686;28;20227;-66
2022/02/22 12:46:30;;;;;;;19.43;6.70;;;10.70;99.90;;;;;;5018052;28;20192;-67
2022/02/22 12:48:59;;;;;;;13.80;5.87;;;10.80;99.90;;;;;;5021781;28;20210;-67
2022/02/22 12:51:30;;;;;;;18.07;5.87;;;10.70;99.90;;;;;;5014608;28;20282;-67
2022/02/22 12:54:06;;;;;;;17.70;6.27;;;10.70;99.90;;;;;;5020890;28;20205;-67
2022/02/22 12:56:39;;;;;;;15.53;5.57;;;10.80;99.90;;;;;;5029781;28;20245;-67
2022/02/22 12:59:10;;;;;;;12.83;5.23;;;10.90;99.90;;;;;;5024831;28;20277;-67